sensor_id;sensor_type;location;lat;lon;timestamp;temperature;humidity
15239;DHT22;7722;53.274;9.500;2023-05-07T00:02:08;8.90;99.90
15239;DHT22;7722;53.274;9.500;2023-05-07T00:04:37;9.00;99.90
15239;DHT22;7722;53.274;9.500;2023-05-07T00:07:04;8.90;99.90
15239;DHT22;7722;53.274;9.500;2023-05-07T00:09:32;8.90;99.90
15239;DHT22;7722;53.274;9.500;2023-05-07T00:11:59;8.80;99.90
15239;DHT22;7722;53.274;9.500;2023-05-07T00:14:26;8.80;99.90
15239;DHT22;7722;53.274;9.500;2023-05-07T00:16:52;8.80;99.90
15239;DHT22;7722;53.274;9.500;2023-05-07T00:19:19;8.70;99.90
15239;DHT22;7722;53.274;9.500;2023-05-07T00:21:48;8.70;99.90
15239;DHT22;7722;53.274;9.500;2023-05-07T00:24:15;8.80;99.90
15239;DHT22;7722;53.274;9.500;2023-05-07T00:26:42;8.70;99.90
15239;DHT22;7722;53.274;9.500;2023-05-07T00:29:09;8.70;99.90
15239;DHT22;7722;53.274;9.500;2023-05-07T00:31:36;8.70;99.90
15239;DHT22;7722;53.274;9.500;2023-05-07T00:34:03;8.70;99.90
15239;DHT22;7722;53.274;9.500;2023-05-07T00:36:30;8.70;99.90
15239;DHT22;7722;53.274;9.500;2023-05-07T00:38:59;8.70;99.90
15239;DHT22;7722;53.274;9.500;2023-05-07T00:41:27;8.70;99.90
15239;DHT22;7722;53.274;9.500;2023-05-07T00:43:54;8.70;99.90
15239;DHT22;7722;53.274;9.500;2023-05-07T00:46:21;8.70;99.90
15239;DHT22;7722;53.274;9.500;2023-05-07T00:48:50;8.70;99.90
15239;DHT22;7722;53.274;9.500;2023-05-07T00:51:17;8.70;99.90
15239;DHT22;7722;53.274;9.500;2023-05-07T00:53:44;8.70;99.90
15239;DHT22;7722;53.274;9.500;2023-05-07T00:56:13;8.70;99.90
15239;DHT22;7722;53.274;9.500;2023-05-07T00:58:40;8.70;99.90
15239;DHT22;7722;53.274;9.500;2023-05-07T01:01:07;8.70;99.90
15239;DHT22;7722;53.274;9.500;2023-05-07T01:03:34;8.70;99.90
15239;DHT22;7722;53.274;9.500;2023-05-07T01:06:02;8.70;99.90
15239;DHT22;7722;53.274;9.500;2023-05-07T01:08:30;8.70;99.90
15239;DHT22;7722;53.274;9.500;2023-05-07T01:10:58;8.70;99.90
15239;DHT22;7722;53.274;9.500;2023-05-07T01:13:28;8.70;99.90
15239;DHT22;7722;53.274;9.500;2023-05-07T01:15:55;8.80;99.90
15239;DHT22;7722;53.274;9.500;2023-05-07T01:18:22;8.80;99.90
15239;DHT22;7722;53.274;9.500;2023-05-07T01:20:49;8.70;99.90
15239;DHT22;7722;53.274;9.500;2023-05-07T01:23:18;8.70;99.90
15239;DHT22;7722;53.274;9.500;2023-05-07T01:25:51;8.70;99.90
15239;DHT22;7722;53.274;9.500;2023-05-07T01:28:18;8.70;99.90
15239;DHT22;7722;53.274;9.500;2023-05-07T01:30:48;8.70;99.90
15239;DHT22;7722;53.274;9.500;2023-05-07T01:33:19;8.70;99.90
15239;DHT22;7722;53.274;9.500;2023-05-07T01:35:50;8.70;99.90
15239;DHT22;7722;53.274;9.500;2023-05-07T01:38:20;8.70;99.90
15239;DHT22;7722;53.274;9.500;2023-05-07T01:40:48;8.70;99.90
15239;DHT22;7722;53.274;9.500;2023-05-07T01:43:15;8.70;99.90
15239;DHT22;7722;53.274;9.500;2023-05-07T01:45:42;8.70;99.90
15239;DHT22;7722;53.274;9.500;2023-05-07T01:48:10;8.70;99.90
15239;DHT22;7722;53.274;9.500;2023-05-07T01:50:38;8.70;99.90
15239;DHT22;7722;53.274;9.500;2023-05-07T01:53:06;8.70;99.90
15239;DHT22;7722;53.274;9.500;2023-05-07T01:55:34;8.70;99.90
15239;DHT22;7722;53.274;9.500;2023-05-07T01:58:02;8.70;99.90
15239;DHT22;7722;53.274;9.500;2023-05-07T02:00:29;8.70;99.90
15239;DHT22;7722;53.274;9.500;2023-05-07T02:02:56;8.70;99.90
15239;DHT22;7722;53.274;9.500;2023-05-07T02:05:23;8.80;99.90
15239;DHT22;7722;53.274;9.500;2023-05-07T02:07:50;8.70;99.90
15239;DHT22;7722;53.274;9.500;2023-05-07T02:10:17;8.70;99.90
15239;DHT22;7722;53.274;9.500;2023-05-07T02:12:46;8.80;99.90
15239;DHT22;7722;53.274;9.500;2023-05-07T02:15:13;8.70;99.90
15239;DHT22;7722;53.274;9.500;2023-05-07T02:17:58;8.60;99.90
15239;DHT22;7722;53.274;9.500;2023-05-07T02:20:25;8.60;99.90
15239;DHT22;7722;53.274;9.500;2023-05-07T02:22:52;8.60;99.90
15239;DHT22;7722;53.274;9.500;2023-05-07T02:25:19;8.60;99.90
15239;DHT22;7722;53.274;9.500;2023-05-07T02:27:48;8.60;99.90
15239;DHT22;7722;53.274;9.500;2023-05-07T02:30:15;8.60;99.90
15239;DHT22;7722;53.274;9.500;2023-05-07T02:32:42;8.50;99.90
15239;DHT22;7722;53.274;9.500;2023-05-07T02:35:09;8.60;99.90
15239;DHT22;7722;53.274;9.500;2023-05-07T02:37:36;8.60;99.90
15239;DHT22;7722;53.274;9.500;2023-05-07T02:40:04;8.60;99.90
15239;DHT22;7722;53.274;9.500;2023-05-07T02:42:31;8.60;99.90
15239;DHT22;7722;53.274;9.500;2023-05-07T02:45:00;8.60;99.90
15239;DHT22;7722;53.274;9.500;2023-05-07T02:47:27;8.60;99.90
15239;DHT22;7722;53.274;9.500;2023-05-07T02:49:54;8.60;99.90
15239;DHT22;7722;53.274;9.500;2023-05-07T02:52:21;8.60;99.90
15239;DHT22;7722;53.274;9.500;2023-05-07T02:54:48;8.60;99.90
15239;DHT22;7722;53.274;9.500;2023-05-07T02:57:15;8.50;99.90
15239;DHT22;7722;53.274;9.500;2023-05-07T02:59:42;8.50;99.90
15239;DHT22;7722;53.274;9.500;2023-05-07T03:02:10;8.50;99.90
15239;DHT22;7722;53.274;9.500;2023-05-07T03:04:39;8.50;99.90
15239;DHT22;7722;53.274;9.500;2023-05-07T03:07:06;8.50;99.90
15239;DHT22;7722;53.274;9.500;2023-05-07T03:09:33;8.60;99.90
15239;DHT22;7722;53.274;9.500;2023-05-07T03:12:00;8.60;99.90
15239;DHT22;7722;53.274;9.500;2023-05-07T03:14:28;8.60;99.90
15239;DHT22;7722;53.274;9.500;2023-05-07T03:16:55;8.50;99.90
15239;DHT22;7722;53.274;9.500;2023-05-07T03:19:23;8.60;99.90
15239;DHT22;7722;53.274;9.500;2023-05-07T03:21:50;8.60;99.90
15239;DHT22;7722;53.274;9.500;2023-05-07T03:24:17;8.60;99.90
15239;DHT22;7722;53.274;9.500;2023-05-07T03:26:44;8.60;99.90
15239;DHT22;7722;53.274;9.500;2023-05-07T03:29:11;8.60;99.90
15239;DHT22;7722;53.274;9.500;2023-05-07T03:31:38;8.60;99.90
15239;DHT22;7722;53.274;9.500;2023-05-07T03:34:05;8.60;99.90
15239;DHT22;7722;53.274;9.500;2023-05-07T03:36:34;8.60;99.90
15239;DHT22;7722;53.274;9.500;2023-05-07T03:39:00;8.60;99.90
15239;DHT22;7722;53.274;9.500;2023-05-07T03:41:27;8.60;99.90
15239;DHT22;7722;53.274;9.500;2023-05-07T03:43:55;8.60;99.90
15239;DHT22;7722;53.274;9.500;2023-05-07T03:46:22;8.60;99.90
15239;DHT22;7722;53.274;9.500;2023-05-07T03:48:51;8.60;99.90
15239;DHT22;7722;53.274;9.500;2023-05-07T03:51:18;8.70;99.90
15239;DHT22;7722;53.274;9.500;2023-05-07T03:53:46;8.70;99.90
15239;DHT22;7722;53.274;9.500;2023-05-07T03:56:14;8.70;99.90
15239;DHT22;7722;53.274;9.500;2023-05-07T03:58:40;8.70;99.90
15239;DHT22;7722;53.274;9.500;2023-05-07T04:01:07;8.70;99.90
15239;DHT22;7722;53.274;9.500;2023-05-07T04:03:35;8.70;99.90
15239;DHT22;7722;53.274;9.500;2023-05-07T04:06:02;8.70;99.90
15239;DHT22;7722;53.274;9.500;2023-05-07T04:09:02;8.70;99.90
15239;DHT22;7722;53.274;9.500;2023-05-07T04:11:29;8.70;99.90
15239;DHT22;7722;53.274;9.500;2023-05-07T04:13:56;8.80;99.90
15239;DHT22;7722;53.274;9.500;2023-05-07T04:16:23;8.70;99.90
15239;DHT22;7722;53.274;9.500;2023-05-07T04:18:50;8.80;99.90
15239;DHT22;7722;53.274;9.500;2023-05-07T04:21:18;8.80;99.90
15239;DHT22;7722;53.274;9.500;2023-05-07T04:23:46;8.80;99.90
15239;DHT22;7722;53.274;9.500;2023-05-07T04:26:14;8.80;99.90
15239;DHT22;7722;53.274;9.500;2023-05-07T04:28:42;8.80;99.90
15239;DHT22;7722;53.274;9.500;2023-05-07T04:31:09;8.90;99.90
15239;DHT22;7722;53.274;9.500;2023-05-07T04:33:36;8.90;99.90
15239;DHT22;7722;53.274;9.500;2023-05-07T04:36:03;8.90;99.90
15239;DHT22;7722;53.274;9.500;2023-05-07T04:38:31;8.90;99.90
15239;DHT22;7722;53.274;9.500;2023-05-07T04:41:02;8.90;99.90
15239;DHT22;7722;53.274;9.500;2023-05-07T04:43:32;8.90;99.90
15239;DHT22;7722;53.274;9.500;2023-05-07T04:45:59;8.80;99.90
15239;DHT22;7722;53.274;9.500;2023-05-07T04:48:26;8.80;99.90
15239;DHT22;7722;53.274;9.500;2023-05-07T04:50:54;8.80;99.90
15239;DHT22;7722;53.274;9.500;2023-05-07T04:53:21;8.80;99.90
15239;DHT22;7722;53.274;9.500;2023-05-07T04:55:48;8.80;99.90
15239;DHT22;7722;53.274;9.500;2023-05-07T04:58:15;8.90;99.90
15239;DHT22;7722;53.274;9.500;2023-05-07T05:00:43;8.80;99.90
15239;DHT22;7722;53.274;9.500;2023-05-07T05:03:15;8.90;99.90
15239;DHT22;7722;53.274;9.500;2023-05-07T05:05:42;8.90;99.90
15239;DHT22;7722;53.274;9.500;2023-05-07T05:08:09;8.90;99.90
15239;DHT22;7722;53.274;9.500;2023-05-07T05:10:36;8.90;99.90
15239;DHT22;7722;53.274;9.500;2023-05-07T05:13:03;8.90;99.90
15239;DHT22;7722;53.274;9.500;2023-05-07T05:15:30;8.90;99.90
15239;DHT22;7722;53.274;9.500;2023-05-07T05:17:58;9.00;99.90
15239;DHT22;7722;53.274;9.500;2023-05-07T05:20:25;9.00;99.90
15239;DHT22;7722;53.274;9.500;2023-05-07T05:22:52;9.00;99.90
15239;DHT22;7722;53.274;9.500;2023-05-07T05:25:19;9.10;99.90
15239;DHT22;7722;53.274;9.500;2023-05-07T05:27:46;9.10;99.90
15239;DHT22;7722;53.274;9.500;2023-05-07T05:30:13;9.10;99.90
15239;DHT22;7722;53.274;9.500;2023-05-07T05:32:40;9.00;99.90
15239;DHT22;7722;53.274;9.500;2023-05-07T05:35:09;9.00;99.90
15239;DHT22;7722;53.274;9.500;2023-05-07T05:37:36;9.00;99.90
15239;DHT22;7722;53.274;9.500;2023-05-07T05:40:04;9.00;99.90
15239;DHT22;7722;53.274;9.500;2023-05-07T05:42:31;9.10;99.90
15239;DHT22;7722;53.274;9.500;2023-05-07T05:44:58;9.10;99.90
15239;DHT22;7722;53.274;9.500;2023-05-07T05:47:25;9.10;99.90
15239;DHT22;7722;53.274;9.500;2023-05-07T05:49:52;9.10;99.90
15239;DHT22;7722;53.274;9.500;2023-05-07T05:52:20;9.20;99.90
15239;DHT22;7722;53.274;9.500;2023-05-07T05:54:49;9.20;99.90
15239;DHT22;7722;53.274;9.500;2023-05-07T05:57:16;9.20;99.90
15239;DHT22;7722;53.274;9.500;2023-05-07T05:59:44;9.10;99.90
15239;DHT22;7722;53.274;9.500;2023-05-07T06:02:12;9.20;99.90
15239;DHT22;7722;53.274;9.500;2023-05-07T06:04:39;9.20;99.90
15239;DHT22;7722;53.274;9.500;2023-05-07T06:07:06;9.20;99.90
15239;DHT22;7722;53.274;9.500;2023-05-07T06:09:34;9.40;99.90
15239;DHT22;7722;53.274;9.500;2023-05-07T06:12:01;9.40;99.90
15239;DHT22;7722;53.274;9.500;2023-05-07T06:14:28;9.50;99.90
15239;DHT22;7722;53.274;9.500;2023-05-07T06:16:55;9.50;99.90
15239;DHT22;7722;53.274;9.500;2023-05-07T06:19:22;9.50;99.90
15239;DHT22;7722;53.274;9.500;2023-05-07T06:21:49;9.50;99.90
15239;DHT22;7722;53.274;9.500;2023-05-07T06:24:16;9.60;99.90
15239;DHT22;7722;53.274;9.500;2023-05-07T06:26:45;9.50;99.90
15239;DHT22;7722;53.274;9.500;2023-05-07T06:29:12;9.60;99.90
15239;DHT22;7722;53.274;9.500;2023-05-07T06:31:39;9.60;99.90
15239;DHT22;7722;53.274;9.500;2023-05-07T06:34:05;9.70;99.90
15239;DHT22;7722;53.274;9.500;2023-05-07T06:36:33;9.70;99.90
15239;DHT22;7722;53.274;9.500;2023-05-07T06:39:00;9.70;99.90
15239;DHT22;7722;53.274;9.500;2023-05-07T06:41:26;9.60;99.90
15239;DHT22;7722;53.274;9.500;2023-05-07T06:43:55;9.60;99.90
15239;DHT22;7722;53.274;9.500;2023-05-07T06:46:22;9.60;99.90
15239;DHT22;7722;53.274;9.500;2023-05-07T06:48:49;9.80;99.90
15239;DHT22;7722;53.274;9.500;2023-05-07T06:51:16;9.80;99.90
15239;DHT22;7722;53.274;9.500;2023-05-07T06:53:43;9.80;99.90
15239;DHT22;7722;53.274;9.500;2023-05-07T06:56:10;9.80;99.90
15239;DHT22;7722;53.274;9.500;2023-05-07T06:58:37;9.80;99.90
15239;DHT22;7722;53.274;9.500;2023-05-07T07:01:05;9.80;99.90
15239;DHT22;7722;53.274;9.500;2023-05-07T07:03:32;9.70;99.90
15239;DHT22;7722;53.274;9.500;2023-05-07T07:05:59;9.80;99.90
15239;DHT22;7722;53.274;9.500;2023-05-07T07:08:27;9.80;99.90
15239;DHT22;7722;53.274;9.500;2023-05-07T07:10:54;9.90;99.90
15239;DHT22;7722;53.274;9.500;2023-05-07T07:13:21;10.00;99.90
15239;DHT22;7722;53.274;9.500;2023-05-07T07:15:48;10.10;99.90
15239;DHT22;7722;53.274;9.500;2023-05-07T07:18:16;10.10;99.90
15239;DHT22;7722;53.274;9.500;2023-05-07T07:20:43;10.10;99.90
15239;DHT22;7722;53.274;9.500;2023-05-07T07:23:11;10.30;99.90
15239;DHT22;7722;53.274;9.500;2023-05-07T07:25:38;10.30;99.90
15239;DHT22;7722;53.274;9.500;2023-05-07T07:28:05;10.30;99.90
15239;DHT22;7722;53.274;9.500;2023-05-07T07:30:32;10.30;99.90
15239;DHT22;7722;53.274;9.500;2023-05-07T07:32:59;10.30;99.90
15239;DHT22;7722;53.274;9.500;2023-05-07T07:35:29;10.40;99.90
15239;DHT22;7722;53.274;9.500;2023-05-07T07:38:05;10.50;99.90
15239;DHT22;7722;53.274;9.500;2023-05-07T07:40:35;10.60;99.90
15239;DHT22;7722;53.274;9.500;2023-05-07T07:43:02;10.50;99.90
15239;DHT22;7722;53.274;9.500;2023-05-07T08:32:23;11.30;99.90
15239;DHT22;7722;53.274;9.500;2023-05-07T08:34:50;11.30;99.90
15239;DHT22;7722;53.274;9.500;2023-05-07T08:37:18;11.40;99.90
15239;DHT22;7722;53.274;9.500;2023-05-07T08:39:45;11.50;99.90
15239;DHT22;7722;53.274;9.500;2023-05-07T08:42:17;11.50;99.90
15239;DHT22;7722;53.274;9.500;2023-05-07T08:44:45;11.40;99.90
15239;DHT22;7722;53.274;9.500;2023-05-07T08:47:13;11.60;99.90
15239;DHT22;7722;53.274;9.500;2023-05-07T08:49:42;11.70;99.90
15239;DHT22;7722;53.274;9.500;2023-05-07T08:52:09;11.90;99.90
15239;DHT22;7722;53.274;9.500;2023-05-07T08:54:39;11.80;99.90
15239;DHT22;7722;53.274;9.500;2023-05-07T08:57:07;11.80;99.90
15239;DHT22;7722;53.274;9.500;2023-05-07T08:59:37;11.80;99.90
15239;DHT22;7722;53.274;9.500;2023-05-07T09:02:06;11.90;99.90
15239;DHT22;7722;53.274;9.500;2023-05-07T09:04:34;12.00;99.90
15239;DHT22;7722;53.274;9.500;2023-05-07T09:07:03;12.10;99.90
15239;DHT22;7722;53.274;9.500;2023-05-07T09:12:08;12.10;99.90
15239;DHT22;7722;53.274;9.500;2023-05-07T09:14:35;12.20;99.90
15239;DHT22;7722;53.274;9.500;2023-05-07T09:17:02;12.30;99.90
15239;DHT22;7722;53.274;9.500;2023-05-07T09:19:30;12.40;99.90
15239;DHT22;7722;53.274;9.500;2023-05-07T09:22:00;12.50;99.90
15239;DHT22;7722;53.274;9.500;2023-05-07T09:24:29;12.50;99.90
15239;DHT22;7722;53.274;9.500;2023-05-07T09:27:00;12.70;99.90
15239;DHT22;7722;53.274;9.500;2023-05-07T09:29:28;12.60;99.90
15239;DHT22;7722;53.274;9.500;2023-05-07T09:31:56;12.50;99.90
15239;DHT22;7722;53.274;9.500;2023-05-07T09:34:23;12.80;99.90
15239;DHT22;7722;53.274;9.500;2023-05-07T09:36:50;13.00;99.90
15239;DHT22;7722;53.274;9.500;2023-05-07T09:39:16;13.00;99.90
15239;DHT22;7722;53.274;9.500;2023-05-07T09:41:46;13.00;99.90
15239;DHT22;7722;53.274;9.500;2023-05-07T09:44:14;13.10;99.90
15239;DHT22;7722;53.274;9.500;2023-05-07T09:46:43;13.30;99.90
15239;DHT22;7722;53.274;9.500;2023-05-07T09:49:15;13.50;99.90
15239;DHT22;7722;53.274;9.500;2023-05-07T09:51:47;13.50;99.90
15239;DHT22;7722;53.274;9.500;2023-05-07T09:54:15;13.60;99.90
15239;DHT22;7722;53.274;9.500;2023-05-07T09:56:42;13.50;99.90
15239;DHT22;7722;53.274;9.500;2023-05-07T09:59:13;13.60;99.90
15239;DHT22;7722;53.274;9.500;2023-05-07T10:01:41;13.80;99.90
15239;DHT22;7722;53.274;9.500;2023-05-07T10:04:09;13.70;99.90
15239;DHT22;7722;53.274;9.500;2023-05-07T10:06:37;13.50;99.90
15239;DHT22;7722;53.274;9.500;2023-05-07T10:09:04;13.50;99.90
15239;DHT22;7722;53.274;9.500;2023-05-07T10:11:32;13.40;99.90
15239;DHT22;7722;53.274;9.500;2023-05-07T10:14:00;13.40;99.90
15239;DHT22;7722;53.274;9.500;2023-05-07T10:16:31;13.70;99.90
15239;DHT22;7722;53.274;9.500;2023-05-07T10:19:02;13.90;99.90
15239;DHT22;7722;53.274;9.500;2023-05-07T10:21:30;13.70;99.90
15239;DHT22;7722;53.274;9.500;2023-05-07T10:23:59;13.70;99.90
15239;DHT22;7722;53.274;9.500;2023-05-07T10:26:28;13.80;99.90
15239;DHT22;7722;53.274;9.500;2023-05-07T10:28:59;13.80;99.90
15239;DHT22;7722;53.274;9.500;2023-05-07T10:31:52;14.00;99.90
15239;DHT22;7722;53.274;9.500;2023-05-07T10:34:24;14.10;99.90
15239;DHT22;7722;53.274;9.500;2023-05-07T10:36:56;14.30;99.90
15239;DHT22;7722;53.274;9.500;2023-05-07T10:39:23;14.30;99.90
15239;DHT22;7722;53.274;9.500;2023-05-07T10:41:52;14.60;99.90
15239;DHT22;7722;53.274;9.500;2023-05-07T10:44:26;14.80;99.90
15239;DHT22;7722;53.274;9.500;2023-05-07T10:47:11;15.10;99.90
15239;DHT22;7722;53.274;9.500;2023-05-07T10:50:22;15.20;99.90
15239;DHT22;7722;53.274;9.500;2023-05-07T10:53:21;15.40;99.90
15239;DHT22;7722;53.274;9.500;2023-05-07T10:55:50;15.30;99.90
15239;DHT22;7722;53.274;9.500;2023-05-07T10:58:24;15.40;99.90
15239;DHT22;7722;53.274;9.500;2023-05-07T11:00:56;15.50;99.90
15239;DHT22;7722;53.274;9.500;2023-05-07T11:03:25;15.70;99.90
15239;DHT22;7722;53.274;9.500;2023-05-07T11:06:12;16.00;99.90
15239;DHT22;7722;53.274;9.500;2023-05-07T11:08:55;16.20;99.90
15239;DHT22;7722;53.274;9.500;2023-05-07T11:11:46;16.70;99.90
15239;DHT22;7722;53.274;9.500;2023-05-07T11:14:43;16.50;99.90
15239;DHT22;7722;53.274;9.500;2023-05-07T11:17:10;16.00;99.90
15239;DHT22;7722;53.274;9.500;2023-05-07T11:19:49;15.50;99.90
15239;DHT22;7722;53.274;9.500;2023-05-07T11:22:36;15.30;99.90
15239;DHT22;7722;53.274;9.500;2023-05-07T11:25:06;15.40;99.90
15239;DHT22;7722;53.274;9.500;2023-05-07T11:27:33;15.20;99.90
15239;DHT22;7722;53.274;9.500;2023-05-07T11:30:00;15.40;99.90
15239;DHT22;7722;53.274;9.500;2023-05-07T11:32:28;15.30;99.90
15239;DHT22;7722;53.274;9.500;2023-05-07T11:34:59;15.40;99.90
15239;DHT22;7722;53.274;9.500;2023-05-07T11:37:27;15.40;99.90
15239;DHT22;7722;53.274;9.500;2023-05-07T11:40:02;15.50;99.90
15239;DHT22;7722;53.274;9.500;2023-05-07T11:42:32;15.50;99.90
15239;DHT22;7722;53.274;9.500;2023-05-07T11:45:00;15.90;99.90
15239;DHT22;7722;53.274;9.500;2023-05-07T11:47:30;16.00;99.90
15239;DHT22;7722;53.274;9.500;2023-05-07T11:50:04;16.50;99.90
15239;DHT22;7722;53.274;9.500;2023-05-07T11:52:31;16.10;99.90
15239;DHT22;7722;53.274;9.500;2023-05-07T11:54:59;16.40;99.90
15239;DHT22;7722;53.274;9.500;2023-05-07T11:57:27;16.60;99.90
15239;DHT22;7722;53.274;9.500;2023-05-07T11:59:54;17.00;99.90
15239;DHT22;7722;53.274;9.500;2023-05-07T12:02:21;16.90;99.90
15239;DHT22;7722;53.274;9.500;2023-05-07T12:04:50;17.30;99.90
15239;DHT22;7722;53.274;9.500;2023-05-07T12:07:18;17.70;99.50
15239;DHT22;7722;53.274;9.500;2023-05-07T12:09:46;18.00;99.60
15239;DHT22;7722;53.274;9.500;2023-05-07T12:12:13;18.10;99.20
15239;DHT22;7722;53.274;9.500;2023-05-07T12:14:42;18.10;98.20
15239;DHT22;7722;53.274;9.500;2023-05-07T12:17:09;17.90;98.10
15239;DHT22;7722;53.274;9.500;2023-05-07T12:19:37;17.30;98.30
15239;DHT22;7722;53.274;9.500;2023-05-07T12:22:05;17.30;98.40
15239;DHT22;7722;53.274;9.500;2023-05-07T12:24:44;17.00;99.20
15239;DHT22;7722;53.274;9.500;2023-05-07T12:27:12;16.50;99.50
15239;DHT22;7722;53.274;9.500;2023-05-07T12:29:39;16.00;99.60
15239;DHT22;7722;53.274;9.500;2023-05-07T12:32:13;15.80;99.90
15239;DHT22;7722;53.274;9.500;2023-05-07T12:34:41;15.80;99.90
15239;DHT22;7722;53.274;9.500;2023-05-07T12:37:08;16.10;99.90
15239;DHT22;7722;53.274;9.500;2023-05-07T12:39:35;16.20;99.90
15239;DHT22;7722;53.274;9.500;2023-05-07T12:42:04;16.40;99.90
15239;DHT22;7722;53.274;9.500;2023-05-07T12:44:32;16.20;99.80
15239;DHT22;7722;53.274;9.500;2023-05-07T12:47:01;16.60;99.80
15239;DHT22;7722;53.274;9.500;2023-05-07T12:49:29;16.80;99.90
15239;DHT22;7722;53.274;9.500;2023-05-07T12:51:56;17.10;99.10
15239;DHT22;7722;53.274;9.500;2023-05-07T12:54:29;16.80;98.20
15239;DHT22;7722;53.274;9.500;2023-05-07T12:57:05;16.80;99.30
15239;DHT22;7722;53.274;9.500;2023-05-07T12:59:34;16.90;98.50
15239;DHT22;7722;53.274;9.500;2023-05-07T13:02:01;16.70;98.40
15239;DHT22;7722;53.274;9.500;2023-05-07T13:04:28;16.90;98.80
15239;DHT22;7722;53.274;9.500;2023-05-07T13:06:55;16.70;98.40
15239;DHT22;7722;53.274;9.500;2023-05-07T13:09:22;16.80;98.80
15239;DHT22;7722;53.274;9.500;2023-05-07T13:11:49;17.10;98.60
15239;DHT22;7722;53.274;9.500;2023-05-07T13:14:17;17.00;98.20
15239;DHT22;7722;53.274;9.500;2023-05-07T13:16:46;16.90;98.40
15239;DHT22;7722;53.274;9.500;2023-05-07T13:19:13;16.90;98.00
15239;DHT22;7722;53.274;9.500;2023-05-07T13:21:40;17.00;98.60
15239;DHT22;7722;53.274;9.500;2023-05-07T13:24:07;17.00;98.10
15239;DHT22;7722;53.274;9.500;2023-05-07T13:26:34;17.40;98.20
15239;DHT22;7722;53.274;9.500;2023-05-07T13:29:01;17.40;98.00
15239;DHT22;7722;53.274;9.500;2023-05-07T13:31:30;17.70;97.20
15239;DHT22;7722;53.274;9.500;2023-05-07T13:33:57;18.50;97.40
15239;DHT22;7722;53.274;9.500;2023-05-07T13:36:24;19.00;95.90
15239;DHT22;7722;53.274;9.500;2023-05-07T13:38:52;19.00;95.40
15239;DHT22;7722;53.274;9.500;2023-05-07T13:41:19;19.30;94.80
15239;DHT22;7722;53.274;9.500;2023-05-07T13:43:46;19.40;94.80
15239;DHT22;7722;53.274;9.500;2023-05-07T13:46:13;19.70;93.90
15239;DHT22;7722;53.274;9.500;2023-05-07T13:48:41;19.80;94.50
15239;DHT22;7722;53.274;9.500;2023-05-07T13:51:09;20.30;94.70
15239;DHT22;7722;53.274;9.500;2023-05-07T13:53:36;20.70;93.60
15239;DHT22;7722;53.274;9.500;2023-05-07T13:56:03;20.70;93.40
15239;DHT22;7722;53.274;9.500;2023-05-07T13:58:31;20.80;92.50
15239;DHT22;7722;53.274;9.500;2023-05-07T14:04:16;18.10;94.60
15239;DHT22;7722;53.274;9.500;2023-05-07T14:06:43;17.90;94.70
15239;DHT22;7722;53.274;9.500;2023-05-07T14:09:10;17.90;95.60
15239;DHT22;7722;53.274;9.500;2023-05-07T14:11:38;18.20;95.50
15239;DHT22;7722;53.274;9.500;2023-05-07T14:14:06;18.20;95.50
15239;DHT22;7722;53.274;9.500;2023-05-07T14:16:33;18.70;95.40
15239;DHT22;7722;53.274;9.500;2023-05-07T14:19:00;18.80;94.80
15239;DHT22;7722;53.274;9.500;2023-05-07T14:21:28;18.90;94.60
15239;DHT22;7722;53.274;9.500;2023-05-07T14:23:56;19.00;94.90
15239;DHT22;7722;53.274;9.500;2023-05-07T14:26:23;18.50;94.50
15239;DHT22;7722;53.274;9.500;2023-05-07T14:28:50;18.10;95.20
15239;DHT22;7722;53.274;9.500;2023-05-07T14:31:17;18.20;94.70
15239;DHT22;7722;53.274;9.500;2023-05-07T14:33:44;18.30;95.00
15239;DHT22;7722;53.274;9.500;2023-05-07T14:36:11;18.10;95.50
15239;DHT22;7722;53.274;9.500;2023-05-07T14:38:39;17.90;95.10
15239;DHT22;7722;53.274;9.500;2023-05-07T14:41:06;17.70;95.40
15239;DHT22;7722;53.274;9.500;2023-05-07T14:43:33;17.60;95.00
15239;DHT22;7722;53.274;9.500;2023-05-07T14:46:00;18.00;95.20
15239;DHT22;7722;53.274;9.500;2023-05-07T14:48:27;18.10;94.70
15239;DHT22;7722;53.274;9.500;2023-05-07T14:50:54;18.20;95.30
15239;DHT22;7722;53.274;9.500;2023-05-07T14:53:22;18.10;94.80
15239;DHT22;7722;53.274;9.500;2023-05-07T14:55:50;17.90;95.20
15239;DHT22;7722;53.274;9.500;2023-05-07T14:58:17;18.00;95.10
15239;DHT22;7722;53.274;9.500;2023-05-07T15:00:45;18.10;95.40
15239;DHT22;7722;53.274;9.500;2023-05-07T15:03:12;18.40;95.20
15239;DHT22;7722;53.274;9.500;2023-05-07T15:05:39;18.30;94.90
15239;DHT22;7722;53.274;9.500;2023-05-07T15:08:07;18.30;95.30
15239;DHT22;7722;53.274;9.500;2023-05-07T15:10:35;18.40;94.90
15239;DHT22;7722;53.274;9.500;2023-05-07T15:13:10;18.60;94.70
15239;DHT22;7722;53.274;9.500;2023-05-07T15:15:38;18.30;94.40
15239;DHT22;7722;53.274;9.500;2023-05-07T15:18:05;18.10;94.50
15239;DHT22;7722;53.274;9.500;2023-05-07T15:20:32;17.80;95.00
15239;DHT22;7722;53.274;9.500;2023-05-07T15:22:59;17.80;95.10
15239;DHT22;7722;53.274;9.500;2023-05-07T15:25:29;17.70;94.90
15239;DHT22;7722;53.274;9.500;2023-05-07T15:27:56;17.90;95.00
15239;DHT22;7722;53.274;9.500;2023-05-07T15:30:25;17.50;95.10
15239;DHT22;7722;53.274;9.500;2023-05-07T15:32:53;17.80;94.70
15239;DHT22;7722;53.274;9.500;2023-05-07T15:35:20;18.00;94.80
15239;DHT22;7722;53.274;9.500;2023-05-07T15:37:47;17.90;94.20
15239;DHT22;7722;53.274;9.500;2023-05-07T15:40:15;18.20;94.00
15239;DHT22;7722;53.274;9.500;2023-05-07T15:42:42;18.50;94.30
15239;DHT22;7722;53.274;9.500;2023-05-07T15:45:10;18.70;94.10
15239;DHT22;7722;53.274;9.500;2023-05-07T15:47:39;19.10;93.20
15239;DHT22;7722;53.274;9.500;2023-05-07T15:50:06;18.80;93.00
15239;DHT22;7722;53.274;9.500;2023-05-07T15:52:33;18.80;93.90
15239;DHT22;7722;53.274;9.500;2023-05-07T15:55:00;18.70;93.50
15239;DHT22;7722;53.274;9.500;2023-05-07T15:57:31;18.30;94.30
15239;DHT22;7722;53.274;9.500;2023-05-07T15:59:59;18.20;94.10
15239;DHT22;7722;53.274;9.500;2023-05-07T16:02:26;18.00;94.20
15239;DHT22;7722;53.274;9.500;2023-05-07T16:04:54;17.90;94.40
15239;DHT22;7722;53.274;9.500;2023-05-07T16:07:22;18.40;94.00
15239;DHT22;7722;53.274;9.500;2023-05-07T16:09:49;18.60;93.80
15239;DHT22;7722;53.274;9.500;2023-05-07T16:12:16;18.20;93.70
15239;DHT22;7722;53.274;9.500;2023-05-07T16:14:43;18.10;94.10
15239;DHT22;7722;53.274;9.500;2023-05-07T16:17:10;17.90;93.90
15239;DHT22;7722;53.274;9.500;2023-05-07T16:19:37;17.60;94.00
15239;DHT22;7722;53.274;9.500;2023-05-07T16:22:06;17.60;94.50
15239;DHT22;7722;53.274;9.500;2023-05-07T16:24:33;17.80;94.90
15239;DHT22;7722;53.274;9.500;2023-05-07T16:27:00;18.10;94.60
15239;DHT22;7722;53.274;9.500;2023-05-07T16:29:27;17.80;94.40
15239;DHT22;7722;53.274;9.500;2023-05-07T16:31:56;18.20;94.50
15239;DHT22;7722;53.274;9.500;2023-05-07T16:34:23;18.70;94.00
15239;DHT22;7722;53.274;9.500;2023-05-07T16:36:50;19.10;92.90
15239;DHT22;7722;53.274;9.500;2023-05-07T16:39:18;19.90;93.20
15239;DHT22;7722;53.274;9.500;2023-05-07T16:41:45;20.40;91.80
15239;DHT22;7722;53.274;9.500;2023-05-07T16:44:13;20.10;91.70
15239;DHT22;7722;53.274;9.500;2023-05-07T16:46:40;20.00;92.20
15239;DHT22;7722;53.274;9.500;2023-05-07T16:49:07;20.00;91.90
15239;DHT22;7722;53.274;9.500;2023-05-07T16:51:34;19.70;91.40
15239;DHT22;7722;53.274;9.500;2023-05-07T16:54:01;19.60;92.00